createdAt,value
2018-01-23T00:00:22.999Z,89.11
2018-01-23T00:02:50.459Z,88.49
2018-01-23T00:05:17.935Z,87.93
2018-01-23T00:07:45.391Z,87.58
2018-01-23T00:10:12.864Z,87.21
2018-01-23T00:12:40.323Z,87.19
2018-01-23T00:15:07.810Z,86.91
2018-01-23T00:17:35.272Z,87.17
2018-01-23T00:20:02.734Z,87.00
2018-01-23T00:22:30.260Z,87.34
2018-01-23T00:24:57.728Z,87.41
2018-01-23T00:27:25.208Z,87.12
2018-01-23T00:29:52.672Z,87.30
2018-01-23T00:32:20.143Z,87.19
2018-01-23T00:34:47.601Z,87.43
2018-01-23T00:37:15.084Z,87.50
2018-01-23T00:39:42.542Z,87.72
2018-01-23T00:42:10.043Z,87.58
2018-01-23T00:44:37.514Z,87.51
2018-01-23T00:47:04.998Z,87.48
2018-01-23T00:49:32.468Z,87.48
2018-01-23T00:51:59.943Z,87.78
2018-01-23T00:54:28.283Z,87.78
2018-01-23T00:56:55.764Z,88.06
2018-01-23T00:59:23.219Z,87.82
2018-01-23T01:01:50.699Z,87.87
2018-01-23T01:04:18.158Z,87.96
2018-01-23T01:06:45.636Z,87.59
2018-01-23T01:09:13.097Z,87.49
2018-01-23T01:11:40.584Z,87.24
2018-01-23T01:14:08.042Z,87.46
2018-01-23T01:16:35.519Z,87.45
2018-01-23T01:19:02.981Z,87.57
2018-01-23T01:21:30.468Z,87.67
2018-01-23T01:23:57.924Z,87.71
2018-01-23T01:26:25.406Z,87.51
2018-01-23T01:28:52.870Z,87.70
2018-01-23T01:31:20.365Z,87.90
2018-01-23T01:33:47.823Z,87.89
2018-01-23T01:36:15.299Z,87.79
2018-01-23T01:38:42.759Z,87.75
2018-01-23T01:41:10.249Z,87.89
2018-01-23T01:43:37.717Z,87.53
2018-01-23T01:46:05.176Z,87.75
2018-01-23T01:48:44.463Z,87.83
2018-01-23T01:51:11.926Z,88.03
2018-01-23T01:53:43.028Z,88.21
2018-01-23T01:56:10.483Z,87.83
2018-01-23T01:58:37.959Z,87.94
2018-01-23T02:01:05.410Z,87.93
2018-01-23T02:03:32.887Z,87.90
2018-01-23T02:06:00.356Z,88.02
2018-01-23T02:08:27.879Z,88.07
2018-01-23T02:10:55.335Z,88.20
2018-01-23T02:13:22.830Z,88.18
2018-01-23T02:15:50.286Z,88.13
2018-01-23T02:18:18.563Z,87.97
2018-01-23T02:20:46.023Z,88.16
2018-01-23T02:23:13.493Z,88.37
2018-01-23T02:25:40.953Z,88.15
2018-01-23T02:28:08.436Z,88.49
2018-01-23T02:30:35.979Z,88.54
2018-01-23T02:33:03.457Z,88.56
2018-01-23T02:35:30.922Z,88.32
2018-01-23T02:37:58.398Z,88.26
2018-01-23T02:40:25.865Z,88.14
2018-01-23T02:42:53.339Z,87.96
2018-01-23T02:45:20.798Z,87.97
2018-01-23T02:47:48.270Z,88.05
2018-01-23T02:50:15.739Z,87.97
2018-01-23T02:52:43.215Z,87.92
2018-01-23T02:55:10.672Z,87.83
2018-01-23T02:57:38.149Z,87.88
2018-01-23T03:00:05.611Z,88.11
2018-01-23T03:02:33.096Z,87.92
2018-01-23T03:05:00.847Z,87.74
2018-01-23T03:07:28.671Z,87.58
2018-01-23T03:09:56.141Z,87.30
2018-01-23T03:12:23.631Z,87.17
2018-01-23T03:14:52.313Z,86.88
2018-01-23T03:17:20.681Z,87.19
2018-01-23T03:19:48.186Z,87.47
2018-01-23T03:22:16.080Z,87.47
2018-01-23T03:24:43.586Z,86.91
2018-01-23T03:27:11.046Z,86.82
2018-01-23T03:29:38.663Z,86.60
2018-01-23T03:32:06.683Z,86.94
2018-01-23T03:34:34.158Z,86.26
2018-01-23T03:37:01.643Z,85.93
2018-01-23T03:39:29.530Z,86.52
2018-01-23T03:41:57.038Z,86.39
2018-01-23T03:44:24.575Z,86.32
2018-01-23T03:46:53.054Z,86.28
2018-01-23T03:49:20.886Z,86.32
2018-01-23T03:51:48.374Z,86.41
2018-01-23T03:54:15.878Z,86.68
2018-01-23T03:56:43.363Z,86.30
2018-01-23T03:59:11.602Z,86.65
2018-01-23T04:01:39.322Z,86.38
2018-01-23T04:04:07.030Z,86.50
2018-01-23T04:06:34.790Z,86.63
2018-01-23T04:09:02.303Z,85.97
2018-01-23T04:11:29.760Z,86.06
2018-01-23T04:13:57.287Z,85.94
2018-01-23T04:16:24.739Z,85.91
2018-01-23T04:18:52.254Z,85.63
2018-01-23T04:21:19.706Z,85.90
2018-01-23T04:23:47.559Z,85.88
2018-01-23T04:26:15.058Z,85.78
2018-01-23T04:28:42.535Z,85.25
2018-01-23T04:31:10.016Z,84.91
2018-01-23T04:33:37.554Z,84.74
2018-01-23T04:36:05.439Z,84.85
2018-01-23T04:38:33.175Z,84.32
2018-01-23T04:41:00.697Z,84.17
2018-01-23T04:43:28.165Z,84.24
2018-01-23T04:45:56.391Z,83.93
2018-01-23T04:48:23.842Z,84.30
2018-01-23T04:50:51.325Z,84.47
2018-01-23T04:53:19.080Z,84.35
2018-01-23T04:55:46.551Z,84.33
2018-01-23T04:58:14.266Z,84.09
2018-01-23T05:00:42.338Z,83.67
2018-01-23T05:03:09.839Z,83.02
2018-01-23T05:05:37.381Z,83.93
2018-01-23T05:08:05.646Z,83.02
2018-01-23T05:10:33.366Z,83.63
2018-01-23T05:13:00.853Z,83.97
2018-01-23T05:15:28.651Z,83.76
2018-01-23T05:17:56.504Z,82.74
2018-01-23T05:20:24.378Z,83.97
2018-01-23T05:22:51.848Z,84.27
2018-01-23T05:25:19.356Z,84.86
2018-01-23T05:27:47.210Z,85.15
2018-01-23T05:30:14.763Z,85.22
2018-01-23T05:32:42.657Z,84.80
2018-01-23T05:35:10.151Z,84.56
2018-01-23T05:37:38.874Z,84.17
2018-01-23T05:40:06.413Z,83.82
2018-01-23T05:42:34.754Z,83.89
2018-01-23T05:45:02.226Z,84.13
2018-01-23T05:47:30.185Z,84.34
2018-01-23T05:49:57.700Z,84.92
2018-01-23T05:52:25.168Z,84.51
2018-01-23T05:54:52.708Z,84.39
2018-01-23T05:57:20.510Z,84.13
2018-01-23T05:59:47.984Z,84.25
2018-01-23T06:02:15.892Z,83.98
2018-01-23T06:04:44.275Z,84.35
2018-01-23T06:07:12.131Z,84.73
2018-01-23T06:09:40.594Z,84.71
2018-01-23T06:12:08.083Z,84.90
2018-01-23T06:14:36.309Z,84.10
2018-01-23T06:17:04.064Z,84.23
2018-01-23T06:19:31.550Z,84.37
2018-01-23T06:21:59.871Z,84.53
2018-01-23T06:24:27.355Z,84.59
2018-01-23T06:26:54.842Z,84.26
2018-01-23T06:29:22.680Z,84.12
2018-01-23T06:31:50.219Z,83.90
2018-01-23T06:34:17.714Z,84.21
2018-01-23T06:36:45.214Z,84.86
2018-01-23T06:39:12.971Z,84.77
2018-01-23T06:41:40.834Z,83.80
2018-01-23T06:44:08.310Z,83.62
2018-01-23T06:46:35.791Z,84.01
2018-01-23T06:49:03.507Z,83.76
2018-01-23T06:51:30.991Z,82.85
2018-01-23T06:53:58.759Z,83.38
2018-01-23T06:56:26.588Z,83.70
2018-01-23T06:58:54.434Z,83.63
2018-01-23T07:01:21.942Z,84.04
2018-01-23T07:03:49.747Z,83.66
2018-01-23T07:06:17.262Z,83.29
2018-01-23T07:08:44.738Z,83.01
2018-01-23T07:11:12.258Z,82.22
2018-01-23T07:13:40.203Z,82.02
2018-01-23T07:16:07.916Z,81.49
2018-01-23T07:18:35.408Z,81.15
2018-01-23T07:21:03.368Z,81.12
2018-01-23T07:23:31.286Z,80.71
2018-01-23T07:25:58.999Z,81.81
2018-01-23T07:28:27.812Z,81.69
2018-01-23T07:30:56.346Z,82.65
2018-01-23T07:33:23.806Z,83.10
2018-01-23T07:35:51.763Z,82.14
2018-01-23T07:38:19.247Z,82.14
2018-01-23T07:40:50.738Z,80.69
2018-01-23T07:43:18.469Z,81.32
2018-01-23T07:45:45.965Z,81.19
2018-01-23T07:48:13.728Z,80.65
2018-01-23T07:50:41.222Z,80.16
2018-01-23T07:53:08.773Z,80.49
2018-01-23T07:55:36.268Z,79.93
2018-01-23T07:58:04.027Z,80.36
2018-01-23T08:00:31.495Z,80.31
2018-01-23T08:02:58.974Z,81.25
2018-01-23T08:05:26.474Z,81.08
2018-01-23T08:07:54.282Z,81.31
2018-01-23T08:10:21.954Z,80.70
2018-01-23T08:12:50.830Z,80.53
2018-01-23T08:15:18.286Z,80.93
2018-01-23T08:17:45.802Z,81.20
2018-01-23T08:20:13.490Z,81.35
2018-01-23T08:22:41.358Z,80.73
2018-01-23T08:25:09.244Z,80.72
2018-01-23T08:27:36.977Z,81.50
2018-01-23T08:30:05.730Z,80.92
2018-01-23T08:32:33.217Z,81.30
2018-01-23T08:35:00.682Z,81.18
2018-01-23T08:37:28.199Z,80.97
2018-01-23T08:39:55.692Z,81.42
2018-01-23T08:42:23.190Z,81.34
2018-01-23T08:44:51.291Z,81.42
2018-01-23T08:47:19.075Z,81.36
2018-01-23T08:49:47.330Z,81.01
2018-01-23T08:52:15.154Z,81.10
2018-01-23T08:54:42.675Z,80.70
2018-01-23T08:57:10.180Z,80.32
2018-01-23T08:59:37.714Z,80.45
2018-01-23T09:02:05.562Z,80.86
2018-01-23T09:04:33.059Z,81.00
2018-01-23T09:07:00.905Z,80.81
2018-01-23T09:09:28.413Z,80.69
2018-01-23T09:11:55.902Z,80.36
2018-01-23T09:14:23.358Z,80.09
2018-01-23T09:16:51.054Z,79.88
2018-01-23T09:19:18.566Z,79.48
2018-01-23T09:21:46.083Z,79.56
2018-01-23T09:24:13.818Z,79.28
2018-01-23T09:26:41.272Z,79.04
2018-01-23T09:29:08.744Z,78.90
2018-01-23T09:31:36.208Z,78.58
2018-01-23T09:34:03.945Z,78.73
2018-01-23T09:36:32.271Z,78.50
2018-01-23T09:39:01.106Z,79.04
2018-01-23T09:41:28.581Z,78.57
2018-01-23T09:43:56.078Z,78.33
2018-01-23T09:46:23.899Z,78.11
2018-01-23T09:48:51.435Z,77.09
2018-01-23T09:51:18.918Z,77.97
2018-01-23T09:53:46.400Z,78.22
2018-01-23T09:56:14.190Z,77.26
2018-01-23T09:58:41.690Z,76.58
2018-01-23T10:01:09.139Z,76.17
2018-01-23T10:03:36.846Z,75.90
2018-01-23T10:06:04.821Z,75.50
2018-01-23T10:08:33.085Z,75.69
2018-01-23T10:11:01.520Z,75.51
2018-01-23T10:13:29.346Z,74.98
2018-01-23T10:15:56.799Z,75.59
2018-01-23T10:20:57.362Z,74.17
2018-01-23T10:23:24.847Z,75.71
2018-01-23T10:25:52.312Z,75.51
2018-01-23T10:28:19.782Z,75.23
2018-01-23T10:30:47.247Z,75.38
2018-01-23T10:33:14.725Z,75.85
2018-01-23T10:35:42.178Z,76.32
2018-01-23T10:38:09.663Z,76.64
2018-01-23T10:40:37.120Z,76.03
2018-01-23T10:43:04.595Z,76.01
2018-01-23T10:45:32.056Z,76.14
2018-01-23T10:47:59.509Z,75.62
2018-01-23T10:50:26.990Z,75.27
2018-01-23T10:52:54.451Z,74.80
2018-01-23T10:55:21.933Z,75.58
2018-01-23T10:57:49.395Z,75.84
2018-01-23T11:00:16.866Z,75.97
2018-01-23T11:02:44.325Z,76.27
2018-01-23T11:05:11.805Z,76.06
2018-01-23T11:07:39.267Z,76.74
2018-01-23T11:10:06.752Z,76.88
2018-01-23T11:12:34.214Z,76.56
2018-01-23T11:15:01.692Z,76.63
2018-01-23T11:17:29.163Z,76.34
2018-01-23T11:19:56.640Z,76.92
2018-01-23T11:22:24.098Z,76.44
2018-01-23T11:24:51.570Z,76.42
2018-01-23T11:27:19.043Z,76.79
2018-01-23T11:29:46.522Z,76.33
2018-01-23T11:32:14.017Z,75.75
2018-01-23T11:34:41.479Z,75.69
2018-01-23T11:37:08.939Z,75.71
2018-01-23T11:39:36.416Z,75.92
2018-01-23T11:42:03.874Z,76.05
2018-01-23T11:44:31.355Z,75.16
2018-01-23T11:46:58.811Z,74.45
2018-01-23T11:49:26.290Z,75.02
2018-01-23T11:51:53.751Z,74.71
2018-01-23T11:54:21.235Z,74.58
2018-01-23T11:56:48.706Z,75.17
2018-01-23T11:59:16.178Z,75.38
2018-01-23T12:01:43.638Z,74.14
2018-01-23T12:04:11.115Z,75.17
2018-01-23T12:06:38.646Z,74.82
2018-01-23T12:09:06.119Z,74.21
2018-01-23T12:11:33.573Z,73.87
2018-01-23T12:14:01.026Z,73.43
2018-01-23T12:16:28.502Z,73.72
2018-01-23T12:18:55.962Z,72.78
2018-01-23T12:21:23.439Z,73.54
2018-01-23T12:23:50.903Z,72.42
2018-01-23T12:26:18.379Z,73.11
2018-01-23T12:28:45.834Z,73.27
2018-01-23T12:31:13.307Z,74.10
2018-01-23T12:33:40.766Z,74.09
2018-01-23T12:36:08.243Z,73.63
2018-01-23T12:38:35.699Z,73.34
2018-01-23T12:41:03.524Z,73.15
2018-01-23T12:43:31.912Z,73.10
2018-01-23T12:45:59.388Z,72.55
2018-01-23T12:48:27.532Z,73.03
2018-01-23T12:50:55.274Z,71.53
2018-01-23T12:53:22.858Z,72.73
2018-01-23T12:55:51.682Z,70.64
2018-01-23T12:58:19.180Z,71.29
2018-01-23T13:00:48.218Z,72.42
2018-01-23T13:03:15.813Z,71.36
2018-01-23T13:05:43.292Z,72.24
2018-01-23T13:08:10.746Z,71.35
2018-01-23T13:10:38.223Z,71.27
2018-01-23T13:13:05.684Z,71.10
2018-01-23T13:15:33.567Z,70.22
2018-01-23T13:18:01.037Z,70.41
2018-01-23T13:20:28.513Z,70.11
2018-01-23T13:22:55.975Z,69.80
2018-01-23T13:25:23.446Z,70.32
2018-01-23T13:27:50.903Z,69.15
2018-01-23T13:30:18.378Z,68.34
2018-01-23T13:32:45.839Z,68.42
2018-01-23T13:35:13.315Z,68.43
2018-01-23T13:37:40.774Z,67.50
2018-01-23T13:40:08.227Z,66.99
2018-01-23T13:42:35.712Z,67.25
2018-01-23T13:45:03.180Z,67.03
2018-01-23T13:47:30.658Z,68.95
2018-01-23T13:49:58.110Z,67.51
2018-01-23T13:52:25.624Z,67.96
2018-01-23T13:54:53.079Z,65.23
2018-01-23T13:57:20.558Z,67.07
2018-01-23T13:59:48.018Z,67.00
2018-01-23T14:02:15.491Z,65.50
2018-01-23T14:04:42.938Z,66.54
2018-01-23T14:07:10.411Z,65.91
2018-01-23T14:09:37.871Z,67.49
2018-01-23T14:12:05.342Z,67.28
2018-01-23T14:14:32.800Z,68.35
2018-01-23T14:19:27.024Z,68.67
2018-01-23T14:21:54.515Z,68.58
2018-01-23T14:24:21.974Z,67.68
2018-01-23T14:26:49.450Z,67.42
2018-01-23T14:29:16.903Z,66.86
2018-01-23T14:31:44.379Z,66.87
2018-01-23T14:34:11.843Z,67.94
2018-01-23T14:36:39.330Z,68.80
2018-01-23T14:39:06.791Z,67.56
2018-01-23T14:41:34.271Z,67.45
2018-01-23T14:44:01.981Z,68.14
2018-01-23T14:46:29.454Z,68.42
2018-01-23T14:48:56.959Z,69.19
2018-01-23T14:51:24.496Z,69.62
2018-01-23T14:53:51.958Z,70.22
2018-01-23T14:56:19.804Z,70.22
2018-01-23T14:58:47.343Z,69.90
2018-01-23T15:01:14.865Z,69.51
2018-01-23T15:03:42.629Z,70.29
2018-01-23T15:06:10.088Z,70.55
2018-01-23T15:08:37.783Z,70.41
2018-01-23T15:11:05.266Z,70.38
2018-01-23T15:13:33.175Z,70.83
2018-01-23T15:16:02.098Z,71.79
2018-01-23T15:18:29.651Z,72.27
2018-01-23T15:20:57.202Z,72.06
2018-01-23T15:23:24.754Z,71.99
2018-01-23T15:25:52.475Z,72.37
2018-01-23T15:28:19.978Z,72.11
2018-01-23T15:30:48.334Z,72.49
2018-01-23T15:33:15.814Z,72.40
2018-01-23T15:35:43.355Z,72.09
2018-01-23T15:38:10.846Z,71.21
2018-01-23T15:40:38.367Z,71.10
2018-01-23T15:43:05.835Z,71.67
2018-01-23T15:45:33.290Z,71.69
2018-01-23T15:48:00.823Z,71.93
2018-01-23T15:50:29.654Z,72.39
2018-01-23T15:52:57.600Z,73.14
2018-01-23T15:55:25.101Z,72.38
2018-01-23T15:57:52.884Z,72.38
2018-01-23T16:00:21.358Z,73.04
2018-01-23T16:02:48.876Z,72.31
2018-01-23T16:05:16.705Z,72.59
2018-01-23T16:07:44.591Z,72.54
2018-01-23T16:10:12.044Z,73.14
2018-01-23T16:12:39.734Z,72.92
2018-01-23T16:15:07.214Z,72.10
2018-01-23T16:17:34.990Z,72.57
2018-01-23T16:20:02.772Z,72.19
2018-01-23T16:22:30.312Z,72.12
2018-01-23T16:24:57.755Z,72.27
2018-01-23T16:27:25.487Z,72.58
2018-01-23T16:29:53.286Z,71.99
2018-01-23T16:32:20.759Z,73.19
2018-01-23T16:34:49.055Z,73.45
2018-01-23T16:37:17.283Z,73.57
2018-01-23T16:39:45.069Z,74.22
2018-01-23T16:42:12.563Z,73.97
2018-01-23T16:44:40.098Z,73.76
2018-01-23T16:47:07.626Z,73.64
2018-01-23T16:49:35.158Z,73.77
2018-01-23T16:52:02.643Z,73.87
2018-01-23T16:54:31.168Z,73.96
2018-01-23T16:56:58.651Z,73.68
2018-01-23T16:59:26.173Z,74.10
2018-01-23T17:01:54.054Z,74.53
2018-01-23T17:04:21.945Z,75.04
2018-01-23T17:06:49.709Z,74.52
2018-01-23T17:09:17.282Z,75.06
2018-01-23T17:11:44.735Z,75.10
2018-01-23T17:14:12.348Z,74.63
2018-01-23T17:16:40.781Z,74.64
2018-01-23T17:19:09.638Z,74.15
2018-01-23T17:21:38.515Z,74.97
2018-01-23T17:24:06.255Z,74.64
2018-01-23T17:26:34.115Z,75.11
2018-01-23T17:29:02.096Z,75.24
2018-01-23T17:31:30.210Z,75.36
2018-01-23T17:33:57.726Z,75.03
2018-01-23T17:36:25.672Z,74.97
2018-01-23T17:38:53.533Z,75.54
2018-01-23T17:41:21.132Z,75.58
2018-01-23T17:43:49.766Z,75.66
2018-01-23T17:46:18.274Z,76.25
2018-01-23T17:48:46.210Z,75.75
2018-01-23T17:51:14.063Z,75.67
2018-01-23T17:53:41.883Z,75.76
2018-01-23T17:56:10.214Z,76.23
2018-01-23T17:58:38.032Z,76.20
2018-01-23T18:01:05.839Z,76.16
2018-01-23T18:03:33.336Z,76.29
2018-01-23T18:06:01.175Z,76.05
2018-01-23T18:08:30.009Z,76.21
2018-01-23T18:10:57.866Z,76.38
2018-01-23T18:13:25.367Z,76.46
2018-01-23T18:15:52.920Z,77.35
2018-01-23T18:18:21.037Z,77.23
2018-01-23T18:20:48.939Z,77.43
2018-01-23T18:23:16.472Z,77.35
2018-01-23T18:25:44.079Z,77.60
2018-01-23T18:28:13.680Z,77.36
2018-01-23T18:30:43.271Z,78.01
2018-01-23T18:33:11.282Z,77.82
2018-01-23T18:35:39.655Z,77.96
2018-01-23T18:38:07.187Z,77.96
2018-01-23T18:40:36.111Z,78.62
2018-01-23T18:43:05.595Z,78.22
2018-01-23T18:45:34.187Z,77.92
2018-01-23T18:50:33.844Z,79.01
2018-01-23T18:53:01.400Z,78.21
2018-01-23T18:55:28.977Z,78.53
2018-01-23T18:57:56.556Z,77.65
2018-01-23T19:00:24.170Z,77.67
2018-01-23T19:02:51.785Z,77.85
2018-01-23T19:05:19.326Z,78.22
2018-01-23T19:07:46.811Z,78.32
2018-01-23T19:10:14.287Z,78.59
2018-01-23T19:12:41.742Z,78.09
2018-01-23T19:15:09.711Z,77.81
2018-01-23T19:17:37.167Z,78.52
2018-01-23T19:20:04.650Z,79.13
2018-01-23T19:22:32.107Z,79.12
2018-01-23T19:24:59.577Z,79.02
2018-01-23T19:27:27.026Z,78.69
2018-01-23T19:29:54.502Z,79.29
2018-01-23T19:32:21.964Z,79.08
2018-01-23T19:34:49.720Z,79.59
2018-01-23T19:37:17.581Z,79.82
2018-01-23T19:39:45.099Z,80.13
2018-01-23T19:42:12.561Z,79.92
2018-01-23T19:44:40.002Z,80.04
2018-01-23T19:47:07.475Z,79.96
2018-01-23T19:49:34.938Z,79.67
2018-01-23T19:52:02.407Z,80.11
2018-01-23T19:54:29.871Z,79.90
2018-01-23T19:56:57.338Z,80.15
2018-01-23T19:59:24.822Z,79.98
2018-01-23T20:01:52.298Z,80.14
2018-01-23T20:04:19.863Z,80.52
2018-01-23T20:06:47.375Z,80.57
2018-01-23T20:09:14.826Z,80.80
2018-01-23T20:11:42.863Z,80.51
2018-01-23T20:14:10.318Z,80.40
2018-01-23T20:16:37.789Z,80.41
2018-01-23T20:19:05.254Z,80.36
2018-01-23T20:21:32.718Z,80.56
2018-01-23T20:24:00.166Z,80.36
2018-01-23T20:26:27.692Z,80.58
2018-01-23T20:28:55.241Z,80.53
2018-01-23T20:31:22.719Z,80.68
2018-01-23T20:33:50.179Z,80.67
2018-01-23T20:36:17.679Z,80.92
2018-01-23T20:38:45.143Z,81.26
2018-01-23T20:41:12.627Z,82.24
2018-01-23T20:43:40.079Z,82.47
2018-01-23T20:46:07.559Z,82.67
2018-01-23T20:48:35.020Z,82.27
2018-01-23T20:51:02.506Z,81.58
2018-01-23T20:53:29.958Z,82.32
2018-01-23T20:55:57.522Z,82.44
2018-01-23T20:58:24.985Z,82.63
2018-01-23T21:00:52.457Z,82.29
2018-01-23T21:03:19.915Z,82.26
2018-01-23T21:05:47.400Z,81.66
2018-01-23T21:08:14.857Z,81.96
2018-01-23T21:10:42.306Z,82.19
2018-01-23T21:13:09.783Z,82.36
2018-01-23T21:15:37.244Z,82.09
2018-01-23T21:18:04.714Z,81.92
2018-01-23T21:20:32.168Z,81.83
2018-01-23T21:22:59.647Z,82.17
2018-01-23T21:25:27.114Z,82.01
2018-01-23T21:27:54.586Z,82.08
2018-01-23T21:30:22.044Z,82.64
2018-01-23T21:32:49.519Z,81.91
2018-01-23T21:35:16.966Z,81.69
2018-01-23T21:37:44.440Z,81.71
2018-01-23T21:40:11.892Z,81.99
2018-01-23T21:42:39.362Z,82.34
2018-01-23T21:45:06.823Z,81.70
2018-01-23T21:47:44.835Z,81.68
2018-01-23T21:50:12.295Z,81.92
2018-01-23T21:52:39.775Z,81.36
2018-01-23T21:55:07.231Z,80.97
2018-01-23T21:57:34.706Z,81.03
2018-01-23T22:00:02.160Z,80.61
2018-01-23T22:02:29.638Z,80.60
2018-01-23T22:04:57.112Z,79.37
2018-01-23T22:07:24.594Z,79.22
2018-01-23T22:09:52.071Z,79.23
2018-01-23T22:12:19.550Z,79.33
2018-01-23T22:14:47.002Z,79.27
2018-01-23T22:17:14.478Z,79.26
2018-01-23T22:19:41.939Z,79.02
2018-01-23T22:22:09.427Z,79.65
2018-01-23T22:24:36.885Z,79.86
2018-01-23T22:27:04.355Z,80.21
2018-01-23T22:29:32.299Z,80.51
2018-01-23T22:31:59.778Z,80.84
2018-01-23T22:34:27.235Z,80.90
2018-01-23T22:36:54.708Z,80.64
2018-01-23T22:39:22.168Z,80.71
2018-01-23T22:41:49.631Z,80.92
2018-01-23T22:44:17.114Z,80.97
2018-01-23T22:46:44.570Z,80.94
2018-01-23T22:49:12.051Z,81.46
2018-01-23T22:51:39.507Z,81.65
2018-01-23T22:54:06.998Z,81.65
2018-01-23T22:56:34.450Z,81.44
2018-01-23T22:59:01.931Z,81.63
2018-01-23T23:01:29.387Z,80.61
2018-01-23T23:03:56.866Z,80.42
2018-01-23T23:06:24.327Z,80.71
2018-01-23T23:08:51.802Z,80.28
2018-01-23T23:11:19.265Z,80.33
2018-01-23T23:13:46.740Z,80.03
2018-01-23T23:16:14.199Z,80.01
2018-01-23T23:18:41.674Z,80.35
2018-01-23T23:21:09.130Z,80.38
2018-01-23T23:23:36.630Z,79.40
2018-01-23T23:26:04.107Z,79.67
2018-01-23T23:28:31.648Z,79.57
2018-01-23T23:30:59.107Z,79.70
2018-01-23T23:33:26.585Z,79.91
2018-01-23T23:35:54.042Z,79.99
2018-01-23T23:38:21.532Z,80.16
2018-01-23T23:40:48.990Z,79.75
2018-01-23T23:43:16.562Z,79.87
2018-01-23T23:45:44.062Z,79.82
2018-01-23T23:48:11.583Z,79.98
2018-01-23T23:50:39.048Z,79.69
2018-01-23T23:53:06.526Z,79.98
2018-01-23T23:55:34.822Z,79.83
2018-01-23T23:58:02.370Z,79.45
